Time;durP1;ratioP1;P1;durP2;ratioP2;P2;SDS_P1;SDS_P2;PMS_P1;PMS_P2;Temp;Humidity;BMP_temperature;BMP_pressure;BME280_temperature;BME280_humidity;BME280_pressure;Samples;Min_cycle;Max_cycle;Signal;HPM_P1;HPM_P2
2022/08/27 00:01:54;;;;;;;;;;;16.70;99.90;;;;;;5136801;27;20246;-75
2022/08/27 00:04:19;;;;;;;;;;;16.80;99.90;;;;;;5117814;27;19920;-75
2022/08/27 00:06:45;;;;;;;;;;;16.90;99.90;;;;;;5150303;27;19967;-75
2022/08/27 00:09:10;;;;;;;;;;;16.90;99.90;;;;;;5146366;27;19919;-75
2022/08/27 00:11:36;;;;;;;;;;;17.00;99.90;;;;;;5123530;27;20011;-75
2022/08/27 00:14:01;;;;;;;;;;;17.00;99.90;;;;;;5133339;27;19920;-75
2022/08/27 00:16:27;;;;;;;;;;;17.10;99.90;;;;;;5130331;27;20301;-75
2022/08/27 00:18:53;;;;;;;;;;;17.10;99.90;;;;;;5116802;27;20339;-75
2022/08/27 00:21:19;;;;;;;;;;;17.20;99.90;;;;;;5116587;27;19925;-75
2022/08/27 00:23:45;;;;;;;;;;;17.30;99.90;;;;;;5128882;27;19997;-76
2022/08/27 00:26:11;;;;;;;;;;;17.30;99.90;;;;;;5138072;27;19920;-75
2022/08/27 00:28:36;;;;;;;;;;;17.20;99.90;;;;;;5140635;27;19919;-75
2022/08/27 00:31:02;;;;;;;;;;;17.30;99.90;;;;;;5135690;27;19926;-75
2022/08/27 00:33:29;;;;;;;;;;;17.20;99.90;;;;;;5145426;27;20274;-75
2022/08/27 00:35:55;;;;;;;;;;;17.20;99.90;;;;;;5115133;28;19926;-75
2022/08/27 00:38:21;;;;;;;;;;;17.20;99.90;;;;;;5143827;27;19919;-75
2022/08/27 00:40:47;;;;;;;;;;;17.10;99.90;;;;;;5138631;27;20013;-78
2022/08/27 00:43:19;;;;;;;;;;;17.10;99.90;;;;;;5157498;27;20048;-75
2022/08/27 00:45:45;;;;;;;;;;;17.10;99.90;;;;;;5160057;27;19923;-75
2022/08/27 00:48:12;;;;;;;;;;;16.90;99.90;;;;;;5136525;27;19966;-75
2022/08/27 00:50:40;;;;;;;;;;;16.90;99.90;;;;;;5160085;27;19976;-75
2022/08/27 00:53:07;;;;;;;;;;;16.80;99.90;;;;;;5144779;27;19975;-75
2022/08/27 00:55:35;;;;;;;;;;;16.80;99.90;;;;;;5142172;27;19979;-75
2022/08/27 00:58:10;;;;;;;;;;;16.80;99.90;;;;;;5156136;27;19954;-75
2022/08/27 01:00:36;;;;;;;;;;;16.80;99.90;;;;;;5143776;27;19925;-75
2022/08/27 01:03:02;;;;;;;;;;;16.80;99.90;;;;;;5132646;27;20273;-75
2022/08/27 01:05:28;;;;;;;;;;;16.80;99.90;;;;;;5124212;27;19919;-75
2022/08/27 01:07:56;;;;;;;;;;;16.80;99.90;;;;;;5142529;27;20018;-75
2022/08/27 01:10:24;;;;;;;;;;;16.80;99.90;;;;;;5140404;27;19926;-75
2022/08/27 01:12:52;;;;;;;;;;;16.80;99.90;;;;;;5163893;27;19919;-76
2022/08/27 01:15:19;;;;;;;;;;;16.80;99.90;;;;;;5152151;27;19958;-73
2022/08/27 01:17:46;;;;;;;;;;;16.80;99.90;;;;;;5143114;27;19919;-73
2022/08/27 01:20:15;;;;;;;;;;;16.90;99.90;;;;;;5110366;27;19923;-73
2022/08/27 01:22:59;;;;;;;;;;;17.00;99.90;;;;;;5140160;27;20002;-73
2022/08/27 01:25:25;;;;;;;;;;;17.00;99.90;;;;;;5139386;27;19919;-74
2022/08/27 01:27:52;;;;;;;;;;;17.10;99.90;;;;;;5158205;27;20373;-74
2022/08/27 01:30:19;;;;;;;;;;;17.10;99.90;;;;;;5144249;27;19919;-73
2022/08/27 01:32:47;;;;;;;;;;;17.20;99.90;;;;;;5160735;27;20018;-74
2022/08/27 01:35:13;;;;;;;;;;;17.30;99.90;;;;;;5156274;27;20711;-73
2022/08/27 01:37:40;;;;;;;;;;;17.30;99.90;;;;;;5154051;27;19923;-73
2022/08/27 01:40:07;;;;;;;;;;;17.30;99.90;;;;;;5156980;27;19919;-74
2022/08/27 01:42:34;;;;;;;;;;;17.30;99.90;;;;;;5159488;27;19918;-73
2022/08/27 01:45:01;;;;;;;;;;;17.40;99.90;;;;;;5136861;27;19923;-74
2022/08/27 01:47:27;;;;;;;;;;;17.40;99.90;;;;;;5137114;27;19919;-74
2022/08/27 01:49:53;;;;;;;;;;;17.40;99.90;;;;;;5152767;27;19925;-73
2022/08/27 01:52:20;;;;;;;;;;;17.40;99.90;;;;;;5156240;27;19923;-73
2022/08/27 01:54:46;;;;;;;;;;;17.40;99.90;;;;;;5154403;27;20389;-73
2022/08/27 01:57:12;;;;;;;;;;;17.40;99.90;;;;;;5148746;27;20266;-73
2022/08/27 01:59:38;;;;;;;;;;;17.50;99.90;;;;;;5135880;27;19919;-74
2022/08/27 02:02:04;;;;;;;;;;;17.40;99.90;;;;;;5130386;27;19926;-74
2022/08/27 02:04:29;;;;;;;;;;;17.40;99.90;;;;;;5135637;27;19920;-74
2022/08/27 02:06:56;;;;;;;;;;;17.30;99.90;;;;;;5136209;27;19963;-73
2022/08/27 02:09:22;;;;;;;;;;;17.30;99.90;;;;;;5139674;27;19962;-74
2022/08/27 02:11:47;;;;;;;;;;;17.20;99.90;;;;;;5118754;27;19970;-74
2022/08/27 02:14:14;;;;;;;;;;;17.20;99.90;;;;;;5131672;27;19926;-74
2022/08/27 02:16:40;;;;;;;;;;;17.10;99.90;;;;;;5128084;27;19971;-74
2022/08/27 02:19:06;;;;;;;;;;;17.00;99.90;;;;;;5154324;27;19919;-74
2022/08/27 02:21:32;;;;;;;;;;;17.00;99.90;;;;;;5156363;27;19923;-74
2022/08/27 02:23:57;;;;;;;;;;;16.90;99.90;;;;;;5155891;27;19979;-74
2022/08/27 02:26:23;;;;;;;;;;;16.90;99.90;;;;;;5150834;27;19923;-74
2022/08/27 02:28:49;;;;;;;;;;;16.80;99.90;;;;;;5141403;27;20381;-74
2022/08/27 02:31:17;;;;;;;;;;;16.70;99.90;;;;;;5141207;27;19923;-73
2022/08/27 02:33:42;;;;;;;;;;;16.70;99.90;;;;;;5105078;27;19968;-74
2022/08/27 02:36:08;;;;;;;;;;;16.60;99.90;;;;;;5155690;27;19942;-74
2022/08/27 02:38:34;;;;;;;;;;;16.60;99.90;;;;;;5141358;27;19918;-74
2022/08/27 02:41:00;;;;;;;;;;;16.60;99.90;;;;;;5121231;27;19924;-76
2022/08/27 02:43:25;;;;;;;;;;;16.60;99.90;;;;;;5127102;27;20002;-74
2022/08/27 02:45:51;;;;;;;;;;;16.60;99.90;;;;;;5113409;27;19920;-74
2022/08/27 02:48:17;;;;;;;;;;;16.60;99.90;;;;;;5118101;27;19992;-74
2022/08/27 02:50:44;;;;;;;;;;;16.60;99.90;;;;;;5136001;27;19919;-76
2022/08/27 02:53:10;;;;;;;;;;;16.60;99.90;;;;;;5117762;27;20466;-75
2022/08/27 02:55:35;;;;;;;;;;;16.60;99.90;;;;;;5135935;27;20459;-75
2022/08/27 02:58:01;;;;;;;;;;;16.50;99.90;;;;;;5142183;27;20034;-74
2022/08/27 03:00:27;;;;;;;;;;;16.50;99.90;;;;;;5120729;27;19980;-75
2022/08/27 03:02:53;;;;;;;;;;;16.50;99.90;;;;;;5130058;27;19935;-75
2022/08/27 03:05:19;;;;;;;;;;;16.50;99.90;;;;;;5125606;27;19923;-75
2022/08/27 03:07:45;;;;;;;;;;;16.50;99.90;;;;;;5143453;27;19926;-75
2022/08/27 03:10:12;;;;;;;;;;;16.50;99.90;;;;;;5135472;27;20367;-75
2022/08/27 03:12:39;;;;;;;;;;;16.40;99.90;;;;;;5129350;27;19919;-75
2022/08/27 03:15:06;;;;;;;;;;;16.40;99.90;;;;;;5134057;27;20374;-78
2022/08/27 03:20:17;;;;;;;;;;;16.40;99.90;;;;;;5139860;27;19919;-75
2022/08/27 03:22:43;;;;;;;;;;;16.30;99.90;;;;;;5138235;27;19923;-75
2022/08/27 03:25:09;;;;;;;;;;;16.30;99.90;;;;;;5117127;27;20363;-75
2022/08/27 03:27:35;;;;;;;;;;;16.30;99.90;;;;;;5117164;27;19929;-75
2022/08/27 03:30:02;;;;;;;;;;;16.30;99.90;;;;;;5135432;27;19974;-75
2022/08/27 03:32:28;;;;;;;;;;;16.30;99.90;;;;;;5135701;27;19920;-75
2022/08/27 03:34:55;;;;;;;;;;;16.40;99.90;;;;;;5133482;27;20355;-75
2022/08/27 03:37:21;;;;;;;;;;;16.40;99.90;;;;;;5152111;27;19919;-75
2022/08/27 03:39:46;;;;;;;;;;;16.40;99.90;;;;;;5152481;27;19926;-75
2022/08/27 03:42:12;;;;;;;;;;;16.50;99.90;;;;;;5153324;27;19923;-74
2022/08/27 03:44:38;;;;;;;;;;;16.50;99.90;;;;;;5116069;27;20002;-75
2022/08/27 03:47:03;;;;;;;;;;;16.60;99.90;;;;;;5134131;27;20254;-74
2022/08/27 03:49:29;;;;;;;;;;;16.60;99.90;;;;;;5117793;27;20040;-75
2022/08/27 03:51:54;;;;;;;;;;;16.70;99.90;;;;;;5122592;27;19926;-75
2022/08/27 03:54:20;;;;;;;;;;;16.70;99.90;;;;;;5134809;27;19940;-75
2022/08/27 03:56:46;;;;;;;;;;;16.80;99.90;;;;;;5152042;27;19942;-74
2022/08/27 03:59:11;;;;;;;;;;;16.90;99.90;;;;;;5153394;27;20052;-75
2022/08/27 04:01:37;;;;;;;;;;;16.90;99.90;;;;;;5136905;27;19960;-75
2022/08/27 04:04:03;;;;;;;;;;;17.00;99.90;;;;;;5123938;27;19919;-75
2022/08/27 04:06:28;;;;;;;;;;;17.00;99.90;;;;;;5145146;27;19922;-75
2022/08/27 04:08:54;;;;;;;;;;;17.00;99.90;;;;;;5140868;27;19919;-75
2022/08/27 04:11:20;;;;;;;;;;;17.10;99.90;;;;;;5120110;27;19926;-75
2022/08/27 04:13:46;;;;;;;;;;;17.10;99.90;;;;;;5128496;27;20335;-75
2022/08/27 04:16:12;;;;;;;;;;;17.10;99.90;;;;;;5116411;27;19927;-76
2022/08/27 04:18:37;;;;;;;;;;;17.10;99.90;;;;;;5141467;27;19919;-75
2022/08/27 04:21:07;;;;;;;;;;;17.20;99.90;;;;;;5126449;27;19919;-75
2022/08/27 04:23:33;;;;;;;;;;;17.20;99.90;;;;;;5130334;27;19919;-75
2022/08/27 04:25:59;;;;;;;;;;;17.20;99.90;;;;;;5153479;27;19923;-74
2022/08/27 04:28:25;;;;;;;;;;;17.20;99.90;;;;;;5117258;28;19942;-75
2022/08/27 04:30:50;;;;;;;;;;;17.20;99.90;;;;;;5116120;28;20347;-75
2022/08/27 04:33:16;;;;;;;;;;;17.20;99.90;;;;;;5130088;28;19920;-75
2022/08/27 04:35:42;;;;;;;;;;;17.20;99.90;;;;;;5133099;28;19927;-74
2022/08/27 04:38:07;;;;;;;;;;;17.20;99.90;;;;;;5134271;27;19919;-74
2022/08/27 04:43:19;;;;;;;;;;;17.20;99.90;;;;;;5145516;27;20462;-75
2022/08/27 04:45:46;;;;;;;;;;;17.30;99.90;;;;;;5131883;28;19919;-74
2022/08/27 04:48:12;;;;;;;;;;;17.30;99.90;;;;;;5138986;27;20347;-74
2022/08/27 04:50:39;;;;;;;;;;;17.30;99.90;;;;;;5136458;27;19925;-74
2022/08/27 04:53:05;;;;;;;;;;;17.30;99.90;;;;;;5152266;27;19926;-74
2022/08/27 04:55:30;;;;;;;;;;;17.30;99.90;;;;;;5153297;27;19919;-74
2022/08/27 04:57:56;;;;;;;;;;;17.20;99.90;;;;;;5117438;27;20006;-75
2022/08/27 05:00:22;;;;;;;;;;;17.10;99.90;;;;;;5134937;27;19968;-75
2022/08/27 05:02:48;;;;;;;;;;;17.10;99.90;;;;;;5116781;28;20350;-74
2022/08/27 05:05:13;;;;;;;;;;;17.00;99.90;;;;;;5143379;27;20010;-75
2022/08/27 05:07:39;;;;;;;;;;;17.00;99.90;;;;;;5139300;27;20443;-74
2022/08/27 05:10:05;;;;;;;;;;;17.00;99.90;;;;;;5126046;28;20006;-75
2022/08/27 05:12:30;;;;;;;;;;;17.00;99.90;;;;;;5132772;27;20294;-75
2022/08/27 05:14:56;;;;;;;;;;;16.90;99.90;;;;;;5128238;27;19919;-75
2022/08/27 05:17:21;;;;;;;;;;;16.90;99.90;;;;;;5138405;27;19920;-75
2022/08/27 05:19:48;;;;;;;;;;;16.80;99.90;;;;;;5149924;27;19919;-75
2022/08/27 05:22:13;;;;;;;;;;;16.80;99.90;;;;;;5153289;27;19926;-75
2022/08/27 05:24:39;;;;;;;;;;;16.90;99.90;;;;;;5150725;27;20293;-75
2022/08/27 05:27:05;;;;;;;;;;;16.90;99.90;;;;;;5134569;27;19919;-74
2022/08/27 05:29:30;;;;;;;;;;;16.90;99.90;;;;;;5136809;27;19926;-75
2022/08/27 05:31:56;;;;;;;;;;;17.00;99.90;;;;;;5102599;27;20359;-75
2022/08/27 05:34:21;;;;;;;;;;;17.00;99.90;;;;;;5146152;27;19942;-74
2022/08/27 05:36:47;;;;;;;;;;;17.10;99.90;;;;;;5124765;27;19942;-75
2022/08/27 05:39:12;;;;;;;;;;;17.20;99.90;;;;;;5120663;27;19970;-75
2022/08/27 05:41:38;;;;;;;;;;;17.20;99.90;;;;;;5136534;27;19927;-75
2022/08/27 05:44:08;;;;;;;;;;;17.20;99.90;;;;;;5143824;27;19919;-75
2022/08/27 05:46:35;;;;;;;;;;;17.30;99.90;;;;;;5119296;27;20274;-75
2022/08/27 05:49:00;;;;;;;;;;;17.30;99.90;;;;;;5137389;27;19923;-75
2022/08/27 05:51:30;;;;;;;;;;;17.30;99.90;;;;;;5140248;27;19983;-75
2022/08/27 05:53:58;;;;;;;;;;;17.40;99.90;;;;;;5151254;27;19973;-75
2022/08/27 05:56:24;;;;;;;;;;;17.50;99.90;;;;;;5137081;27;19926;-75
2022/08/27 06:01:36;;;;;;;;;;;17.60;99.90;;;;;;5147658;27;19926;-75
2022/08/27 06:04:02;;;;;;;;;;;17.70;99.90;;;;;;5119294;27;20243;-75
2022/08/27 06:06:28;;;;;;;;;;;17.70;99.90;;;;;;5148564;27;19919;-75
2022/08/27 06:08:54;;;;;;;;;;;17.90;99.90;;;;;;5136983;27;19919;-75
2022/08/27 06:11:20;;;;;;;;;;;17.90;99.90;;;;;;5132838;27;19978;-75
2022/08/27 06:13:45;;;;;;;;;;;18.00;99.90;;;;;;5123254;27;20393;-75
2022/08/27 06:16:13;;;;;;;;;;;18.00;99.90;;;;;;5135600;27;20311;-75
2022/08/27 06:18:39;;;;;;;;;;;18.00;99.90;;;;;;5135646;27;20257;-78
2022/08/27 06:21:05;;;;;;;;;;;18.10;99.90;;;;;;5156491;27;20346;-77
2022/08/27 06:23:30;;;;;;;;;;;18.10;99.90;;;;;;5145808;27;19919;-76
2022/08/27 06:25:57;;;;;;;;;;;18.20;99.90;;;;;;5135651;27;20013;-75
2022/08/27 06:28:23;;;;;;;;;;;18.20;99.90;;;;;;5143449;27;19926;-85
2022/08/27 06:30:49;;;;;;;;;;;18.30;99.90;;;;;;5144578;27;19927;-78
2022/08/27 06:33:15;;;;;;;;;;;18.30;99.90;;;;;;5134607;27;19999;-76
2022/08/27 06:35:41;;;;;;;;;;;18.20;99.90;;;;;;5140922;27;20349;-76
2022/08/27 06:38:06;;;;;;;;;;;18.20;99.90;;;;;;5131640;27;19919;-76
2022/08/27 06:40:32;;;;;;;;;;;18.20;99.90;;;;;;5131409;27;19973;-77
2022/08/27 06:42:58;;;;;;;;;;;18.20;99.90;;;;;;5148486;27;20362;-77
2022/08/27 06:45:24;;;;;;;;;;;18.20;99.90;;;;;;5138526;27;19986;-76
2022/08/27 06:47:49;;;;;;;;;;;18.20;99.90;;;;;;5115495;27;20295;-76
2022/08/27 06:50:15;;;;;;;;;;;18.10;99.90;;;;;;5134868;27;19971;-76
2022/08/27 06:52:41;;;;;;;;;;;18.10;99.90;;;;;;5135451;27;19927;-77
2022/08/27 06:55:06;;;;;;;;;;;18.00;99.90;;;;;;5120306;27;19930;-75
2022/08/27 06:57:32;;;;;;;;;;;18.00;99.90;;;;;;5125717;27;19954;-76
2022/08/27 06:59:58;;;;;;;;;;;18.00;99.90;;;;;;5113054;27;19919;-77
2022/08/27 07:02:23;;;;;;;;;;;18.00;99.90;;;;;;5101435;27;19923;-77
2022/08/27 07:04:51;;;;;;;;;;;18.10;99.90;;;;;;5129607;27;19942;-76
2022/08/27 07:07:16;;;;;;;;;;;18.20;99.90;;;;;;5136310;27;19950;-77
2022/08/27 07:09:42;;;;;;;;;;;18.30;99.90;;;;;;5140250;27;19981;-77
2022/08/27 07:12:07;;;;;;;;;;;18.30;99.90;;;;;;5137486;27;20358;-76
2022/08/27 07:14:33;;;;;;;;;;;18.30;99.90;;;;;;5130454;27;20285;-76
2022/08/27 07:17:00;;;;;;;;;;;18.20;99.90;;;;;;5135084;27;19930;-79
2022/08/27 07:19:27;;;;;;;;;;;18.10;99.90;;;;;;5109338;27;19923;-79
2022/08/27 07:21:53;;;;;;;;;;;18.10;99.90;;;;;;5144550;27;19963;-78
2022/08/27 07:24:18;;;;;;;;;;;18.10;99.90;;;;;;5144565;27;19927;-88
2022/08/27 07:26:45;;;;;;;;;;;18.10;99.90;;;;;;5126375;27;19974;-79
2022/08/27 07:29:13;;;;;;;;;;;18.10;99.90;;;;;;5127126;27;20013;-79
2022/08/27 07:31:38;;;;;;;;;;;18.20;99.90;;;;;;5127815;27;19927;-79
2022/08/27 07:34:04;;;;;;;;;;;18.30;99.90;;;;;;5107826;27;20393;-78
2022/08/27 07:36:30;;;;;;;;;;;18.40;99.90;;;;;;5144544;27;19966;-78
2022/08/27 07:38:56;;;;;;;;;;;18.50;99.90;;;;;;5127404;27;20346;-79
2022/08/27 07:41:22;;;;;;;;;;;18.60;99.90;;;;;;5127388;27;20010;-79
2022/08/27 07:46:31;;;;;;;;;;;18.90;99.90;;;;;;5137701;27;20303;-79
2022/08/27 07:48:58;;;;;;;;;;;18.90;99.90;;;;;;5126900;27;19926;-81
2022/08/27 07:51:24;;;;;;;;;;;19.00;99.90;;;;;;5130652;27;19931;-80
2022/08/27 07:53:51;;;;;;;;;;;19.10;99.90;;;;;;5142440;27;19923;-80
2022/08/27 07:56:17;;;;;;;;;;;19.20;99.90;;;;;;5126697;27;19927;-79
2022/08/27 07:58:42;;;;;;;;;;;19.20;99.90;;;;;;5131285;27;19923;-80
2022/08/27 08:01:08;;;;;;;;;;;19.30;99.90;;;;;;5143952;27;19979;-78
2022/08/27 08:03:34;;;;;;;;;;;19.30;99.90;;;;;;5126392;27;19931;-78
2022/08/27 08:06:04;;;;;;;;;;;19.40;99.90;;;;;;5142521;27;19931;-80
2022/08/27 08:08:31;;;;;;;;;;;19.50;99.90;;;;;;5126730;27;19931;-80
2022/08/27 08:10:57;;;;;;;;;;;19.70;99.90;;;;;;5144486;27;19923;-81
2022/08/27 08:13:23;;;;;;;;;;;19.90;99.90;;;;;;5126334;27;19990;-81
2022/08/27 08:15:49;;;;;;;;;;;19.90;99.90;;;;;;5142670;27;19927;-81
2022/08/27 08:18:14;;;;;;;;;;;20.00;99.90;;;;;;5126696;27;19923;-81
2022/08/27 08:20:40;;;;;;;;;;;19.90;99.90;;;;;;5128204;27;20289;-78
2022/08/27 08:23:06;;;;;;;;;;;19.90;99.90;;;;;;5108830;27;19941;-80
2022/08/27 08:25:32;;;;;;;;;;;19.90;99.90;;;;;;5126688;27;19993;-78
2022/08/27 08:27:58;;;;;;;;;;;19.90;99.90;;;;;;5109362;27;20656;-79
2022/08/27 08:30:24;;;;;;;;;;;20.00;99.90;;;;;;5126155;27;20362;-78
2022/08/27 08:32:50;;;;;;;;;;;20.00;99.90;;;;;;5144308;27;19937;-78
2022/08/27 08:35:16;;;;;;;;;;;20.00;99.90;;;;;;5143619;27;19922;-78
2022/08/27 08:37:42;;;;;;;;;;;20.10;99.90;;;;;;5129331;27;19923;-77
2022/08/27 08:40:08;;;;;;;;;;;20.10;99.90;;;;;;5136286;27;19922;-77
2022/08/27 08:42:34;;;;;;;;;;;20.20;99.90;;;;;;5147702;27;19922;-78
2022/08/27 08:45:02;;;;;;;;;;;20.30;99.90;;;;;;5151688;27;20721;-76
2022/08/27 08:47:32;;;;;;;;;;;20.30;99.90;;;;;;5133038;27;19922;-78
2022/08/27 08:49:58;;;;;;;;;;;20.20;99.90;;;;;;5143601;27;19927;-78
2022/08/27 08:52:44;;;;;;;;;;;20.20;99.90;;;;;;5153905;27;19919;-77
2022/08/27 08:55:15;;;;;;;;;;;20.10;99.90;;;;;;5106427;27;19927;-78
2022/08/27 08:57:47;;;;;;;;;;;20.20;99.90;;;;;;5154253;27;20022;-78
2022/08/27 09:00:13;;;;;;;;;;;20.30;99.90;;;;;;5129264;27;19931;-79
2022/08/27 09:02:44;;;;;;;;;;;20.40;99.90;;;;;;5130129;27;19991;-79
2022/08/27 09:05:10;;;;;;;;;;;20.40;99.90;;;;;;5120571;27;20286;-79
2022/08/27 09:07:58;;;;;;;;;;;20.50;99.90;;;;;;5138038;27;19966;-78
2022/08/27 09:10:24;;;;;;;;;;;20.40;99.90;;;;;;5150409;27;19998;-77
2022/08/27 09:12:51;;;;;;;;;;;20.50;99.90;;;;;;5130672;27;20062;-76
2022/08/27 09:15:23;;;;;;;;;;;20.50;99.90;;;;;;5157681;27;19922;-75
2022/08/27 09:17:49;;;;;;;;;;;20.60;99.90;;;;;;5125753;27;19934;-82
2022/08/27 09:20:17;;;;;;;;;;;20.50;99.90;;;;;;5126609;27;19922;-80
2022/08/27 09:22:52;;;;;;;;;;;20.30;99.90;;;;;;5155736;27;19963;-77
2022/08/27 09:25:21;;;;;;;;;;;20.30;99.90;;;;;;5152986;27;19929;-80
2022/08/27 09:27:48;;;;;;;;;;;20.60;99.90;;;;;;5147231;27;20047;-79
2022/08/27 09:30:19;;;;;;;;;;;21.00;99.90;;;;;;5139825;27;20350;-80
2022/08/27 09:32:54;;;;;;;;;;;21.20;99.90;;;;;;5158044;27;19926;-80
2022/08/27 09:35:19;;;;;;;;;;;21.20;99.90;;;;;;5141159;27;19995;-79
2022/08/27 09:37:47;;;;;;;;;;;21.10;99.90;;;;;;5158135;27;19922;-80
2022/08/27 09:40:26;;;;;;;;;;;20.90;99.90;;;;;;5152199;27;19930;-80
2022/08/27 09:42:53;;;;;;;;;;;20.70;99.90;;;;;;5122979;27;19926;-79
2022/08/27 09:45:18;;;;;;;;;;;20.70;99.90;;;;;;5119803;27;19930;-79
2022/08/27 09:47:45;;;;;;;;;;;20.70;99.90;;;;;;5136557;27;20258;-83
2022/08/27 09:50:14;;;;;;;;;;;20.60;99.90;;;;;;5135549;27;19922;-82
2022/08/27 09:52:45;;;;;;;;;;;20.60;99.90;;;;;;5141453;27;19923;-80
2022/08/27 09:55:11;;;;;;;;;;;20.60;99.90;;;;;;5137011;27;19951;-79
2022/08/27 09:57:38;;;;;;;;;;;20.70;99.90;;;;;;5121777;27;19968;-78
2022/08/27 10:00:13;;;;;;;;;;;20.70;99.90;;;;;;5121856;27;19919;-79
2022/08/27 10:02:47;;;;;;;;;;;20.70;99.90;;;;;;5139580;27;20096;-79
2022/08/27 10:05:15;;;;;;;;;;;20.70;99.90;;;;;;5156714;27;19972;-79
2022/08/27 10:07:41;;;;;;;;;;;20.70;99.90;;;;;;5156781;27;19926;-79
2022/08/27 10:10:12;;;;;;;;;;;20.60;99.90;;;;;;5122068;27;19918;-79
2022/08/27 10:12:38;;;;;;;;;;;20.60;99.90;;;;;;5122155;27;19919;-78
2022/08/27 10:15:04;;;;;;;;;;;20.50;99.90;;;;;;5139223;27;19919;-78
2022/08/27 10:17:30;;;;;;;;;;;20.50;99.90;;;;;;5156670;27;19926;-79
2022/08/27 10:20:03;;;;;;;;;;;20.40;99.90;;;;;;5138835;27;19919;-79
2022/08/27 10:22:32;;;;;;;;;;;20.50;99.90;;;;;;5122280;27;19923;-79
2022/08/27 10:25:21;;;;;;;;;;;20.60;99.90;;;;;;5121378;27;19919;-79
2022/08/27 10:27:48;;;;;;;;;;;20.60;99.90;;;;;;5121755;27;19965;-77
2022/08/27 10:30:34;;;;;;;;;;;20.50;99.90;;;;;;5138923;27;20021;-79
2022/08/27 10:32:59;;;;;;;;;;;20.60;99.90;;;;;;5120727;27;19930;-79
2022/08/27 10:35:27;;;;;;;;;;;20.70;99.90;;;;;;5121878;27;19919;-79
2022/08/27 10:38:12;;;;;;;;;;;20.80;99.90;;;;;;5121683;27;20018;-79
2022/08/27 10:40:41;;;;;;;;;;;20.80;99.90;;;;;;5138849;27;19926;-79
2022/08/27 10:43:13;;;;;;;;;;;21.10;99.90;;;;;;5155962;27;19919;-78
2022/08/27 10:45:45;;;;;;;;;;;21.50;99.90;;;;;;5114564;28;19924;-78
2022/08/27 10:48:23;;;;;;;;;;;21.60;99.90;;;;;;5097327;28;19970;-76
2022/08/27 10:50:55;;;;;;;;;;;21.70;99.90;;;;;;5097716;28;19924;-77
2022/08/27 10:53:39;;;;;;;;;;;21.90;99.90;;;;;;5131832;27;19919;-78
2022/08/27 10:56:12;;;;;;;;;;;22.20;99.90;;;;;;5114386;28;19927;-80
2022/08/27 10:58:48;;;;;;;;;;;22.30;99.90;;;;;;5114606;28;19969;-79
2022/08/27 11:01:14;;;;;;;;;;;22.40;99.90;;;;;;5114350;28;19920;-80
2022/08/27 11:03:43;;;;;;;;;;;22.50;99.90;;;;;;5114390;28;20224;-80
2022/08/27 11:06:14;;;;;;;;;;;22.60;99.90;;;;;;5130703;27;19924;-79
2022/08/27 11:08:44;;;;;;;;;;;22.60;99.90;;;;;;5131509;27;20358;-78
2022/08/27 11:11:30;;;;;;;;;;;22.60;99.90;;;;;;5131280;27;19931;-79
2022/08/27 11:13:58;;;;;;;;;;;22.60;99.90;;;;;;5113088;28;19920;-79
2022/08/27 11:16:26;;;;;;;;;;;22.30;99.90;;;;;;5114220;28;19920;-78
2022/08/27 11:18:55;;;;;;;;;;;22.20;99.90;;;;;;5131340;27;19919;-79
2022/08/27 11:21:38;;;;;;;;;;;22.20;99.90;;;;;;5131084;27;19927;-79
2022/08/27 11:24:22;;;;;;;;;;;22.20;99.90;;;;;;5130597;27;19924;-80
2022/08/27 11:26:50;;;;;;;;;;;22.40;99.90;;;;;;5131285;27;19927;-79
2022/08/27 11:29:22;;;;;;;;;;;22.80;99.90;;;;;;5130929;27;19983;-78
2022/08/27 11:31:55;;;;;;;;;;;23.20;99.90;;;;;;5113940;28;20279;-78
2022/08/27 11:34:21;;;;;;;;;;;23.40;99.90;;;;;;5130782;27;19927;-79
2022/08/27 11:36:52;;;;;;;;;;;23.60;99.90;;;;;;5113796;28;19920;-79
2022/08/27 11:39:37;;;;;;;;;;;23.20;99.90;;;;;;5113565;28;19923;-79
2022/08/27 11:42:18;;;;;;;;;;;23.20;99.90;;;;;;5096668;28;19920;-80
2022/08/27 11:44:45;;;;;;;;;;;23.30;99.90;;;;;;5113184;28;19943;-78
2022/08/27 11:47:17;;;;;;;;;;;23.70;99.90;;;;;;5096362;28;19919;-80
2022/08/27 11:49:47;;;;;;;;;;;24.00;99.90;;;;;;5113573;28;19989;-80
2022/08/27 11:52:20;;;;;;;;;;;24.70;99.90;;;;;;5113374;28;19970;-80
2022/08/27 11:54:47;;;;;;;;;;;24.50;99.90;;;;;;5113546;28;19920;-80
2022/08/27 11:57:14;;;;;;;;;;;24.30;99.40;;;;;;5113322;28;19926;-79
2022/08/27 11:59:42;;;;;;;;;;;23.90;99.90;;;;;;5113327;28;19926;-79
2022/08/27 12:02:19;;;;;;;;;;;23.60;99.90;;;;;;5079722;28;19942;-80
2022/08/27 12:04:46;;;;;;;;;;;23.20;99.90;;;;;;5096204;28;19992;-80
2022/08/27 12:07:17;;;;;;;;;;;22.90;99.90;;;;;;5113238;28;19920;-79
2022/08/27 12:09:53;;;;;;;;;;;22.60;99.90;;;;;;5096273;28;19927;-78
2022/08/27 12:12:54;;;;;;;;;;;22.50;99.90;;;;;;5096206;28;20077;-78
2022/08/27 12:15:23;;;;;;;;;;;22.30;99.90;;;;;;5054330;28;19928;-78
2022/08/27 12:17:57;;;;;;;;;;;22.20;99.90;;;;;;5105371;28;19972;-78
2022/08/27 12:20:25;;;;;;;;;;;22.20;99.90;;;;;;5112983;28;19923;-78
2022/08/27 12:23:51;;;;;;;;;;;22.80;99.90;;;;;;5096190;28;19924;-78
2022/08/27 12:25:57;;;;;;;;;;;22.80;99.90;;;;;;5105402;28;19920;-80
2022/08/27 12:28:23;;;;;;;;;;;22.70;99.90;;;;;;5112861;28;19927;-80
2022/08/27 12:30:50;;;;;;;;;;;23.30;99.90;;;;;;5096082;28;19924;-78
2022/08/27 12:33:30;;;;;;;;;;;23.50;99.90;;;;;;5095682;28;19920;-80
2022/08/27 12:35:57;;;;;;;;;;;23.90;99.90;;;;;;5113486;28;20269;-80
2022/08/27 12:38:26;;;;;;;;;;;24.50;99.70;;;;;;5117145;28;19926;-80
2022/08/27 12:40:53;;;;;;;;;;;24.80;98.30;;;;;;5117355;28;19920;-80
2022/08/27 12:43:20;;;;;;;;;;;25.10;97.30;;;;;;5119915;27;19974;-79
2022/08/27 12:45:59;;;;;;;;;;;25.50;98.00;;;;;;5140946;27;19919;-79
2022/08/27 12:48:29;;;;;;;;;;;25.60;97.00;;;;;;5123692;27;20009;-78
2022/08/27 12:50:57;;;;;;;;;;;26.00;96.80;;;;;;5140977;27;19926;-78
2022/08/27 12:53:25;;;;;;;;;;;26.10;95.70;;;;;;5123273;27;19969;-78
2022/08/27 12:56:14;;;;;;;;;;;26.40;95.80;;;;;;5141153;27;20014;-79
2022/08/27 12:58:47;;;;;;;;;;;26.60;94.70;;;;;;5144336;27;19930;-79
2022/08/27 13:01:30;;;;;;;;;;;26.70;94.50;;;;;;5140387;27;19919;-79
2022/08/27 13:03:56;;;;;;;;;;;26.60;94.10;;;;;;5123647;27;19919;-79
2022/08/27 13:06:27;;;;;;;;;;;26.90;95.20;;;;;;5123101;27;20272;-79
2022/08/27 13:08:54;;;;;;;;;;;27.20;94.40;;;;;;5140804;27;19962;-79
2022/08/27 13:11:24;;;;;;;;;;;26.60;94.10;;;;;;5122946;27;20429;-79
2022/08/27 13:13:50;;;;;;;;;;;26.20;94.10;;;;;;5157902;27;19919;-79
2022/08/27 13:16:20;;;;;;;;;;;25.90;94.30;;;;;;5123208;27;19919;-79
2022/08/27 13:18:47;;;;;;;;;;;26.30;94.50;;;;;;5140285;27;19919;-79
2022/08/27 13:21:21;;;;;;;;;;;27.00;95.00;;;;;;5157534;27;19927;-79
2022/08/27 13:23:53;;;;;;;;;;;26.80;93.00;;;;;;5123275;27;19919;-80
2022/08/27 13:26:20;;;;;;;;;;;26.20;92.90;;;;;;5139888;27;19923;-80
2022/08/27 13:28:47;;;;;;;;;;;26.40;93.60;;;;;;5157510;27;20427;-80
2022/08/27 13:31:13;;;;;;;;;;;26.70;93.90;;;;;;5122950;27;19979;-80
2022/08/27 13:33:39;;;;;;;;;;;26.50;94.10;;;;;;5157499;27;19963;-80
2022/08/27 13:36:06;;;;;;;;;;;26.00;93.50;;;;;;5157539;27;20042;-79
2022/08/27 13:38:32;;;;;;;;;;;25.40;93.50;;;;;;5139879;27;19930;-79
2022/08/27 13:41:00;;;;;;;;;;;25.10;94.30;;;;;;5140143;27;19968;-78
2022/08/27 13:43:36;;;;;;;;;;;25.10;94.60;;;;;;5156899;27;19970;-79
2022/08/27 13:46:10;;;;;;;;;;;25.00;95.10;;;;;;5139824;27;19980;-78
2022/08/27 13:48:39;;;;;;;;;;;24.90;95.20;;;;;;5139280;27;19919;-78
2022/08/27 13:51:07;;;;;;;;;;;25.40;95.30;;;;;;5157185;27;19926;-79
2022/08/27 13:56:38;;;;;;;;;;;25.80;94.70;;;;;;5139576;27;20365;-79
2022/08/27 13:59:14;;;;;;;;;;;26.60;93.90;;;;;;5140032;27;19926;-79
2022/08/27 14:01:54;;;;;;;;;;;27.30;93.90;;;;;;5139679;27;20361;-80
2022/08/27 14:04:22;;;;;;;;;;;27.20;92.20;;;;;;5122378;27;19930;-79
2022/08/27 14:06:48;;;;;;;;;;;26.90;92.20;;;;;;5122067;27;19923;-78
2022/08/27 14:09:17;;;;;;;;;;;27.00;92.20;;;;;;5157002;27;20411;-78
2022/08/27 14:11:42;;;;;;;;;;;27.10;91.70;;;;;;5156789;27;19927;-79
2022/08/27 14:14:08;;;;;;;;;;;27.70;92.10;;;;;;5122428;27;19919;-79
2022/08/27 14:16:35;;;;;;;;;;;27.50;91.60;;;;;;5156457;27;19922;-80
2022/08/27 14:19:07;;;;;;;;;;;27.90;91.20;;;;;;5156606;27;19926;-80
2022/08/27 14:21:34;;;;;;;;;;;27.60;90.70;;;;;;5121735;27;19924;-79
2022/08/27 14:23:59;;;;;;;;;;;27.80;90.90;;;;;;5122229;27;20239;-79
2022/08/27 14:26:25;;;;;;;;;;;28.00;90.70;;;;;;5138329;27;19940;-80
2022/08/27 14:28:52;;;;;;;;;;;28.80;90.00;;;;;;5156195;27;19919;-79
2022/08/27 14:31:17;;;;;;;;;;;29.40;90.50;;;;;;5121947;27;19941;-81
2022/08/27 14:33:45;;;;;;;;;;;29.20;88.90;;;;;;5139011;27;20346;-79
2022/08/27 14:36:10;;;;;;;;;;;28.10;88.60;;;;;;5122200;27;19919;-79